sensor_id;sensor_type;location;lat;lon;timestamp;P1;durP1;ratioP1;P2;durP2;ratioP2
35114;SDS011;21292;52.416;13.046;2024-03-07T00:01:22;82.53;;;32.97;;
35114;SDS011;21292;52.416;13.046;2024-03-07T00:03:53;89.32;;;36.33;;
35114;SDS011;21292;52.416;13.046;2024-03-07T00:06:24;96.82;;;37.03;;
35114;SDS011;21292;52.416;13.046;2024-03-07T00:09:13;98.82;;;37.05;;
35114;SDS011;21292;52.416;13.046;2024-03-07T00:11:45;114.18;;;39.60;;
35114;SDS011;21292;52.416;13.046;2024-03-07T00:14:13;121.68;;;41.60;;
35114;SDS011;21292;52.416;13.046;2024-03-07T00:16:41;123.18;;;41.20;;
35114;SDS011;21292;52.416;13.046;2024-03-07T00:19:09;111.47;;;41.67;;
35114;SDS011;21292;52.416;13.046;2024-03-07T00:21:38;144.15;;;47.58;;
35114;SDS011;21292;52.416;13.046;2024-03-07T00:24:06;136.70;;;43.05;;
35114;SDS011;21292;52.416;13.046;2024-03-07T00:26:38;144.73;;;45.78;;
35114;SDS011;21292;52.416;13.046;2024-03-07T00:29:07;139.27;;;44.38;;
35114;SDS011;21292;52.416;13.046;2024-03-07T00:31:35;132.95;;;45.80;;
35114;SDS011;21292;52.416;13.046;2024-03-07T00:34:03;142.75;;;43.90;;
35114;SDS011;21292;52.416;13.046;2024-03-07T00:36:42;123.90;;;42.80;;
35114;SDS011;21292;52.416;13.046;2024-03-07T00:39:11;138.18;;;45.42;;
35114;SDS011;21292;52.416;13.046;2024-03-07T00:41:41;144.98;;;43.80;;
35114;SDS011;21292;52.416;13.046;2024-03-07T00:44:10;135.70;;;45.47;;
35114;SDS011;21292;52.416;13.046;2024-03-07T00:46:38;130.55;;;46.28;;
35114;SDS011;21292;52.416;13.046;2024-03-07T00:49:06;156.40;;;49.22;;
35114;SDS011;21292;52.416;13.046;2024-03-07T00:51:34;145.32;;;45.58;;
35114;SDS011;21292;52.416;13.046;2024-03-07T00:54:06;138.10;;;44.58;;
35114;SDS011;21292;52.416;13.046;2024-03-07T00:56:34;139.05;;;43.22;;
35114;SDS011;21292;52.416;13.046;2024-03-07T00:59:05;151.45;;;47.65;;
35114;SDS011;21292;52.416;13.046;2024-03-07T01:01:33;153.90;;;44.83;;
35114;SDS011;21292;52.416;13.046;2024-03-07T01:04:03;144.00;;;45.33;;
35114;SDS011;21292;52.416;13.046;2024-03-07T01:06:32;148.48;;;48.45;;
35114;SDS011;21292;52.416;13.046;2024-03-07T01:09:00;158.45;;;47.00;;
35114;SDS011;21292;52.416;13.046;2024-03-07T01:11:28;147.32;;;45.70;;
35114;SDS011;21292;52.416;13.046;2024-03-07T01:13:57;150.23;;;46.42;;
35114;SDS011;21292;52.416;13.046;2024-03-07T01:16:26;147.35;;;44.97;;
35114;SDS011;21292;52.416;13.046;2024-03-07T01:18:55;150.00;;;47.90;;
35114;SDS011;21292;52.416;13.046;2024-03-07T01:21:23;139.63;;;45.42;;
35114;SDS011;21292;52.416;13.046;2024-03-07T01:23:52;163.85;;;47.33;;
35114;SDS011;21292;52.416;13.046;2024-03-07T01:26:20;136.15;;;46.22;;
35114;SDS011;21292;52.416;13.046;2024-03-07T01:28:49;154.57;;;47.25;;
35114;SDS011;21292;52.416;13.046;2024-03-07T01:31:17;148.90;;;44.90;;
35114;SDS011;21292;52.416;13.046;2024-03-07T01:33:47;171.38;;;48.03;;
35114;SDS011;21292;52.416;13.046;2024-03-07T01:36:15;147.73;;;43.92;;
35114;SDS011;21292;52.416;13.046;2024-03-07T01:38:43;136.40;;;45.00;;
35114;SDS011;21292;52.416;13.046;2024-03-07T01:41:12;147.43;;;48.65;;
35114;SDS011;21292;52.416;13.046;2024-03-07T01:43:41;151.88;;;45.67;;
35114;SDS011;21292;52.416;13.046;2024-03-07T01:46:10;146.57;;;45.88;;
35114;SDS011;21292;52.416;13.046;2024-03-07T01:48:38;158.43;;;45.47;;
35114;SDS011;21292;52.416;13.046;2024-03-07T01:51:08;141.77;;;46.17;;
35114;SDS011;21292;52.416;13.046;2024-03-07T01:53:36;160.70;;;46.05;;
35114;SDS011;21292;52.416;13.046;2024-03-07T01:56:05;153.85;;;46.38;;
35114;SDS011;21292;52.416;13.046;2024-03-07T01:58:36;152.00;;;49.00;;
35114;SDS011;21292;52.416;13.046;2024-03-07T02:01:05;158.57;;;46.47;;
35114;SDS011;21292;52.416;13.046;2024-03-07T02:03:33;153.45;;;47.53;;
35114;SDS011;21292;52.416;13.046;2024-03-07T02:06:03;162.07;;;47.85;;
35114;SDS011;21292;52.416;13.046;2024-03-07T02:08:33;156.65;;;44.75;;
35114;SDS011;21292;52.416;13.046;2024-03-07T02:11:01;155.25;;;46.80;;
35114;SDS011;21292;52.416;13.046;2024-03-07T02:13:30;145.95;;;46.33;;
35114;SDS011;21292;52.416;13.046;2024-03-07T02:15:58;144.82;;;45.30;;
35114;SDS011;21292;52.416;13.046;2024-03-07T02:18:26;147.65;;;46.83;;
35114;SDS011;21292;52.416;13.046;2024-03-07T02:20:56;150.38;;;47.42;;
35114;SDS011;21292;52.416;13.046;2024-03-07T02:23:25;154.95;;;44.58;;
35114;SDS011;21292;52.416;13.046;2024-03-07T02:25:53;161.95;;;46.17;;
35114;SDS011;21292;52.416;13.046;2024-03-07T02:28:22;149.63;;;44.95;;
35114;SDS011;21292;52.416;13.046;2024-03-07T02:30:50;156.65;;;46.47;;
35114;SDS011;21292;52.416;13.046;2024-03-07T02:33:18;152.13;;;44.33;;
35114;SDS011;21292;52.416;13.046;2024-03-07T02:35:46;151.68;;;43.83;;
35114;SDS011;21292;52.416;13.046;2024-03-07T02:38:17;141.77;;;42.85;;
35114;SDS011;21292;52.416;13.046;2024-03-07T02:40:46;146.65;;;46.33;;
35114;SDS011;21292;52.416;13.046;2024-03-07T02:43:15;122.82;;;39.58;;
35114;SDS011;21292;52.416;13.046;2024-03-07T02:45:43;131.40;;;41.38;;
35114;SDS011;21292;52.416;13.046;2024-03-07T02:48:11;123.93;;;41.47;;
35114;SDS011;21292;52.416;13.046;2024-03-07T02:50:40;133.88;;;42.72;;
35114;SDS011;21292;52.416;13.046;2024-03-07T02:53:10;121.70;;;40.05;;
35114;SDS011;21292;52.416;13.046;2024-03-07T02:55:41;129.43;;;40.38;;
35114;SDS011;21292;52.416;13.046;2024-03-07T02:58:09;117.60;;;40.33;;
35114;SDS011;21292;52.416;13.046;2024-03-07T03:00:37;128.95;;;42.33;;
35114;SDS011;21292;52.416;13.046;2024-03-07T03:03:06;118.63;;;38.70;;
35114;SDS011;21292;52.416;13.046;2024-03-07T03:05:34;118.53;;;40.10;;
35114;SDS011;21292;52.416;13.046;2024-03-07T03:08:02;121.97;;;39.33;;
35114;SDS011;21292;52.416;13.046;2024-03-07T03:10:34;105.95;;;36.72;;
35114;SDS011;21292;52.416;13.046;2024-03-07T03:13:04;107.82;;;38.25;;
35114;SDS011;21292;52.416;13.046;2024-03-07T03:15:33;113.88;;;39.53;;
35114;SDS011;21292;52.416;13.046;2024-03-07T03:18:02;107.70;;;37.47;;
35114;SDS011;21292;52.416;13.046;2024-03-07T03:20:31;106.22;;;39.08;;
35114;SDS011;21292;52.416;13.046;2024-03-07T03:23:02;108.57;;;37.33;;
35114;SDS011;21292;52.416;13.046;2024-03-07T03:25:46;104.15;;;36.80;;
35114;SDS011;21292;52.416;13.046;2024-03-07T03:28:17;111.15;;;38.28;;
35114;SDS011;21292;52.416;13.046;2024-03-07T03:30:48;115.93;;;39.00;;
35114;SDS011;21292;52.416;13.046;2024-03-07T03:33:17;107.88;;;36.78;;
35114;SDS011;21292;52.416;13.046;2024-03-07T03:35:45;124.03;;;39.03;;
35114;SDS011;21292;52.416;13.046;2024-03-07T03:38:14;118.38;;;38.65;;
35114;SDS011;21292;52.416;13.046;2024-03-07T03:40:43;123.70;;;41.00;;
35114;SDS011;21292;52.416;13.046;2024-03-07T03:43:12;113.90;;;39.38;;
35114;SDS011;21292;52.416;13.046;2024-03-07T03:45:41;121.18;;;41.78;;
35114;SDS011;21292;52.416;13.046;2024-03-07T03:48:09;126.93;;;39.42;;
35114;SDS011;21292;52.416;13.046;2024-03-07T03:50:38;113.40;;;41.78;;
35114;SDS011;21292;52.416;13.046;2024-03-07T03:53:06;118.43;;;40.25;;
35114;SDS011;21292;52.416;13.046;2024-03-07T03:55:35;118.95;;;40.28;;
35114;SDS011;21292;52.416;13.046;2024-03-07T03:58:03;108.82;;;40.42;;
35114;SDS011;21292;52.416;13.046;2024-03-07T04:00:33;122.25;;;39.75;;
35114;SDS011;21292;52.416;13.046;2024-03-07T04:03:03;103.75;;;39.38;;
35114;SDS011;21292;52.416;13.046;2024-03-07T04:08:02;114.57;;;41.38;;
35114;SDS011;21292;52.416;13.046;2024-03-07T04:10:32;102.50;;;39.08;;
35114;SDS011;21292;52.416;13.046;2024-03-07T04:13:00;121.47;;;41.97;;
35114;SDS011;21292;52.416;13.046;2024-03-07T04:15:29;120.10;;;41.95;;
35114;SDS011;21292;52.416;13.046;2024-03-07T04:18:04;119.63;;;39.88;;
35114;SDS011;21292;52.416;13.046;2024-03-07T04:20:34;118.20;;;41.20;;
35114;SDS011;21292;52.416;13.046;2024-03-07T04:23:03;110.78;;;41.72;;
35114;SDS011;21292;52.416;13.046;2024-03-07T04:25:34;122.63;;;43.30;;
35114;SDS011;21292;52.416;13.046;2024-03-07T04:28:02;114.38;;;40.83;;
35114;SDS011;21292;52.416;13.046;2024-03-07T04:30:32;126.55;;;42.40;;
35114;SDS011;21292;52.416;13.046;2024-03-07T04:33:00;137.23;;;43.45;;
35114;SDS011;21292;52.416;13.046;2024-03-07T04:35:30;112.13;;;40.63;;
35114;SDS011;21292;52.416;13.046;2024-03-07T04:37:58;107.38;;;40.17;;
35114;SDS011;21292;52.416;13.046;2024-03-07T04:40:27;107.68;;;39.30;;
35114;SDS011;21292;52.416;13.046;2024-03-07T04:42:55;98.70;;;39.90;;
35114;SDS011;21292;52.416;13.046;2024-03-07T04:45:26;110.68;;;40.03;;
35114;SDS011;21292;52.416;13.046;2024-03-07T04:47:54;100.45;;;41.03;;
35114;SDS011;21292;52.416;13.046;2024-03-07T04:50:23;120.68;;;42.50;;
35114;SDS011;21292;52.416;13.046;2024-03-07T04:52:52;105.10;;;39.65;;
35114;SDS011;21292;52.416;13.046;2024-03-07T04:55:20;111.32;;;40.15;;
35114;SDS011;21292;52.416;13.046;2024-03-07T04:57:49;112.45;;;41.85;;
35114;SDS011;21292;52.416;13.046;2024-03-07T05:00:22;100.65;;;39.30;;
35114;SDS011;21292;52.416;13.046;2024-03-07T05:02:50;106.95;;;39.03;;
35114;SDS011;21292;52.416;13.046;2024-03-07T05:05:19;95.22;;;40.33;;
35114;SDS011;21292;52.416;13.046;2024-03-07T05:07:50;100.05;;;41.35;;
35114;SDS011;21292;52.416;13.046;2024-03-07T05:10:21;90.60;;;38.20;;
35114;SDS011;21292;52.416;13.046;2024-03-07T05:12:49;90.10;;;38.83;;
35114;SDS011;21292;52.416;13.046;2024-03-07T05:15:18;90.65;;;39.70;;
35114;SDS011;21292;52.416;13.046;2024-03-07T05:17:46;87.90;;;37.30;;
35114;SDS011;21292;52.416;13.046;2024-03-07T05:20:14;94.05;;;39.35;;
35114;SDS011;21292;52.416;13.046;2024-03-07T05:22:43;85.93;;;39.17;;
35114;SDS011;21292;52.416;13.046;2024-03-07T05:25:18;95.47;;;39.42;;
35114;SDS011;21292;52.416;13.046;2024-03-07T05:27:48;99.25;;;38.92;;
35114;SDS011;21292;52.416;13.046;2024-03-07T05:30:18;92.05;;;38.85;;
35114;SDS011;21292;52.416;13.046;2024-03-07T05:32:50;98.32;;;39.35;;
35114;SDS011;21292;52.416;13.046;2024-03-07T05:35:19;97.38;;;41.72;;
35114;SDS011;21292;52.416;13.046;2024-03-07T05:37:48;88.68;;;38.63;;
35114;SDS011;21292;52.416;13.046;2024-03-07T05:40:18;79.90;;;36.08;;
35114;SDS011;21292;52.416;13.046;2024-03-07T05:42:48;92.03;;;38.55;;
35114;SDS011;21292;52.416;13.046;2024-03-07T05:45:16;106.90;;;41.70;;
35114;SDS011;21292;52.416;13.046;2024-03-07T05:47:45;102.97;;;42.33;;
35114;SDS011;21292;52.416;13.046;2024-03-07T05:50:16;101.38;;;41.00;;
35114;SDS011;21292;52.416;13.046;2024-03-07T05:52:45;90.47;;;37.20;;
35114;SDS011;21292;52.416;13.046;2024-03-07T05:55:15;106.55;;;39.83;;
35114;SDS011;21292;52.416;13.046;2024-03-07T05:57:48;162.00;;;72.85;;
35114;SDS011;21292;52.416;13.046;2024-03-07T06:00:16;156.65;;;67.30;;
35114;SDS011;21292;52.416;13.046;2024-03-07T06:02:55;102.15;;;42.25;;
35114;SDS011;21292;52.416;13.046;2024-03-07T06:05:24;91.63;;;40.75;;
35114;SDS011;21292;52.416;13.046;2024-03-07T06:07:54;100.78;;;39.38;;
35114;SDS011;21292;52.416;13.046;2024-03-07T06:10:23;95.88;;;40.35;;
35114;SDS011;21292;52.416;13.046;2024-03-07T06:12:53;102.82;;;42.30;;
35114;SDS011;21292;52.416;13.046;2024-03-07T06:15:36;101.65;;;39.95;;
35114;SDS011;21292;52.416;13.046;2024-03-07T06:18:06;102.03;;;39.83;;
35114;SDS011;21292;52.416;13.046;2024-03-07T06:20:35;104.35;;;39.42;;
35114;SDS011;21292;52.416;13.046;2024-03-07T06:23:04;105.22;;;40.30;;
35114;SDS011;21292;52.416;13.046;2024-03-07T06:25:32;97.20;;;37.70;;
35114;SDS011;21292;52.416;13.046;2024-03-07T06:30:38;104.00;;;38.15;;
35114;SDS011;21292;52.416;13.046;2024-03-07T06:33:07;101.00;;;40.85;;
35114;SDS011;21292;52.416;13.046;2024-03-07T06:35:35;95.07;;;37.65;;
35114;SDS011;21292;52.416;13.046;2024-03-07T06:38:06;96.32;;;38.22;;
35114;SDS011;21292;52.416;13.046;2024-03-07T06:40:35;86.32;;;36.17;;
35114;SDS011;21292;52.416;13.046;2024-03-07T06:43:06;94.30;;;38.50;;
35114;SDS011;21292;52.416;13.046;2024-03-07T06:48:05;85.20;;;36.67;;
35114;SDS011;21292;52.416;13.046;2024-03-07T06:50:35;87.82;;;36.00;;
35114;SDS011;21292;52.416;13.046;2024-03-07T06:53:05;93.25;;;37.15;;
35114;SDS011;21292;52.416;13.046;2024-03-07T06:55:35;80.85;;;37.42;;
35114;SDS011;21292;52.416;13.046;2024-03-07T06:58:06;91.40;;;34.78;;
35114;SDS011;21292;52.416;13.046;2024-03-07T07:00:35;68.05;;;33.97;;
35114;SDS011;21292;52.416;13.046;2024-03-07T07:03:05;77.78;;;35.65;;
35114;SDS011;21292;52.416;13.046;2024-03-07T07:05:45;73.30;;;31.75;;
35114;SDS011;21292;52.416;13.046;2024-03-07T07:08:30;79.38;;;31.55;;
35114;SDS011;21292;52.416;13.046;2024-03-07T07:11:03;69.97;;;32.72;;
35114;SDS011;21292;52.416;13.046;2024-03-07T07:13:40;69.00;;;30.05;;
35114;SDS011;21292;52.416;13.046;2024-03-07T07:16:11;63.17;;;30.10;;
35114;SDS011;21292;52.416;13.046;2024-03-07T07:18:45;63.40;;;30.55;;
35114;SDS011;21292;52.416;13.046;2024-03-07T07:21:16;69.75;;;32.70;;
35114;SDS011;21292;52.416;13.046;2024-03-07T07:24:01;62.00;;;28.98;;
35114;SDS011;21292;52.416;13.046;2024-03-07T07:26:30;63.35;;;30.40;;
35114;SDS011;21292;52.416;13.046;2024-03-07T07:29:04;65.05;;;29.25;;
35114;SDS011;21292;52.416;13.046;2024-03-07T07:31:33;60.10;;;27.70;;
35114;SDS011;21292;52.416;13.046;2024-03-07T07:34:02;61.72;;;27.00;;
35114;SDS011;21292;52.416;13.046;2024-03-07T07:36:31;53.25;;;26.17;;
35114;SDS011;21292;52.416;13.046;2024-03-07T07:39:03;41.67;;;23.00;;
35114;SDS011;21292;52.416;13.046;2024-03-07T07:41:32;45.60;;;23.90;;
35114;SDS011;21292;52.416;13.046;2024-03-07T07:44:03;50.40;;;24.27;;
35114;SDS011;21292;52.416;13.046;2024-03-07T07:46:35;52.03;;;23.63;;
35114;SDS011;21292;52.416;13.046;2024-03-07T07:49:04;48.28;;;22.90;;
35114;SDS011;21292;52.416;13.046;2024-03-07T07:51:34;49.45;;;22.33;;
35114;SDS011;21292;52.416;13.046;2024-03-07T07:54:03;40.70;;;20.80;;
35114;SDS011;21292;52.416;13.046;2024-03-07T07:56:36;45.38;;;22.08;;
35114;SDS011;21292;52.416;13.046;2024-03-07T07:59:10;46.20;;;21.08;;
35114;SDS011;21292;52.416;13.046;2024-03-07T08:01:43;39.58;;;20.25;;
35114;SDS011;21292;52.416;13.046;2024-03-07T08:04:16;38.38;;;20.65;;
35114;SDS011;21292;52.416;13.046;2024-03-07T08:06:51;35.10;;;19.05;;
35114;SDS011;21292;52.416;13.046;2024-03-07T08:09:34;41.83;;;20.05;;
35114;SDS011;21292;52.416;13.046;2024-03-07T08:12:10;35.67;;;17.67;;
35114;SDS011;21292;52.416;13.046;2024-03-07T08:14:48;32.63;;;17.45;;
35114;SDS011;21292;52.416;13.046;2024-03-07T08:17:23;31.55;;;17.65;;
35114;SDS011;21292;52.416;13.046;2024-03-07T08:19:53;37.10;;;17.08;;
35114;SDS011;21292;52.416;13.046;2024-03-07T08:22:24;30.80;;;16.15;;
35114;SDS011;21292;52.416;13.046;2024-03-07T08:25:03;32.25;;;16.17;;
35114;SDS011;21292;52.416;13.046;2024-03-07T08:28:57;74.43;;;39.00;;
35114;SDS011;21292;52.416;13.046;2024-03-07T08:35:16;25.90;;;14.02;;
35114;SDS011;21292;52.416;13.046;2024-03-07T08:38:06;22.27;;;12.20;;
35114;SDS011;21292;52.416;13.046;2024-03-07T08:40:40;24.10;;;13.70;;
35114;SDS011;21292;52.416;13.046;2024-03-07T08:43:26;27.95;;;13.10;;
35114;SDS011;21292;52.416;13.046;2024-03-07T08:46:01;28.25;;;13.38;;
35114;SDS011;21292;52.416;13.046;2024-03-07T08:48:33;23.42;;;12.10;;
35114;SDS011;21292;52.416;13.046;2024-03-07T08:51:04;24.27;;;12.52;;
35114;SDS011;21292;52.416;13.046;2024-03-07T08:53:34;24.15;;;12.40;;
35114;SDS011;21292;52.416;13.046;2024-03-07T08:56:11;22.63;;;12.18;;
35114;SDS011;21292;52.416;13.046;2024-03-07T08:58:44;23.48;;;11.27;;
35114;SDS011;21292;52.416;13.046;2024-03-07T09:01:16;23.73;;;11.93;;
35114;SDS011;21292;52.416;13.046;2024-03-07T09:03:45;20.27;;;11.48;;
35114;SDS011;21292;52.416;13.046;2024-03-07T09:06:17;20.45;;;11.20;;
35114;SDS011;21292;52.416;13.046;2024-03-07T09:08:46;19.63;;;10.77;;
35114;SDS011;21292;52.416;13.046;2024-03-07T09:11:17;21.45;;;11.27;;
35114;SDS011;21292;52.416;13.046;2024-03-07T09:13:46;20.58;;;11.52;;
35114;SDS011;21292;52.416;13.046;2024-03-07T09:16:16;19.52;;;9.82;;
35114;SDS011;21292;52.416;13.046;2024-03-07T09:18:45;17.85;;;10.82;;
35114;SDS011;21292;52.416;13.046;2024-03-07T09:21:13;21.40;;;11.82;;
35114;SDS011;21292;52.416;13.046;2024-03-07T09:23:43;20.48;;;10.85;;
35114;SDS011;21292;52.416;13.046;2024-03-07T09:26:12;23.17;;;10.02;;
35114;SDS011;21292;52.416;13.046;2024-03-07T09:28:40;17.35;;;10.80;;
35114;SDS011;21292;52.416;13.046;2024-03-07T09:31:08;17.35;;;10.95;;
35114;SDS011;21292;52.416;13.046;2024-03-07T09:33:36;18.85;;;9.27;;
35114;SDS011;21292;52.416;13.046;2024-03-07T09:36:04;20.25;;;10.57;;
35114;SDS011;21292;52.416;13.046;2024-03-07T09:38:34;23.85;;;10.85;;
35114;SDS011;21292;52.416;13.046;2024-03-07T09:41:04;21.52;;;10.18;;
35114;SDS011;21292;52.416;13.046;2024-03-07T09:43:32;21.30;;;12.05;;
35114;SDS011;21292;52.416;13.046;2024-03-07T09:46:02;20.25;;;11.45;;
35114;SDS011;21292;52.416;13.046;2024-03-07T09:48:31;24.08;;;10.50;;
35114;SDS011;21292;52.416;13.046;2024-03-07T09:50:59;22.08;;;11.02;;
35114;SDS011;21292;52.416;13.046;2024-03-07T09:53:33;18.80;;;9.65;;
35114;SDS011;21292;52.416;13.046;2024-03-07T09:56:05;14.48;;;9.07;;
35114;SDS011;21292;52.416;13.046;2024-03-07T09:58:35;45.65;;;29.10;;
35114;SDS011;21292;52.416;13.046;2024-03-07T10:01:12;22.17;;;11.33;;
35114;SDS011;21292;52.416;13.046;2024-03-07T10:03:43;19.88;;;9.98;;
35114;SDS011;21292;52.416;13.046;2024-03-07T10:06:16;17.00;;;9.70;;
35114;SDS011;21292;52.416;13.046;2024-03-07T10:08:45;17.42;;;9.90;;
35114;SDS011;21292;52.416;13.046;2024-03-07T10:11:16;21.55;;;10.70;;
35114;SDS011;21292;52.416;13.046;2024-03-07T10:13:45;17.70;;;9.88;;
35114;SDS011;21292;52.416;13.046;2024-03-07T10:16:18;21.65;;;10.60;;
35114;SDS011;21292;52.416;13.046;2024-03-07T10:18:48;17.95;;;10.50;;
35114;SDS011;21292;52.416;13.046;2024-03-07T10:21:20;17.15;;;9.35;;
35114;SDS011;21292;52.416;13.046;2024-03-07T10:23:53;20.02;;;10.52;;
35114;SDS011;21292;52.416;13.046;2024-03-07T10:26:37;80.60;;;49.58;;
35114;SDS011;21292;52.416;13.046;2024-03-07T10:29:07;18.77;;;11.38;;
35114;SDS011;21292;52.416;13.046;2024-03-07T10:31:40;20.55;;;10.38;;
35114;SDS011;21292;52.416;13.046;2024-03-07T10:34:23;17.52;;;10.63;;
35114;SDS011;21292;52.416;13.046;2024-03-07T10:36:52;27.05;;;10.30;;
35114;SDS011;21292;52.416;13.046;2024-03-07T10:39:22;25.50;;;10.27;;
35114;SDS011;21292;52.416;13.046;2024-03-07T10:42:02;17.15;;;10.27;;
35114;SDS011;21292;52.416;13.046;2024-03-07T10:44:33;16.33;;;9.80;;
35114;SDS011;21292;52.416;13.046;2024-03-07T10:47:09;14.80;;;9.80;;
35114;SDS011;21292;52.416;13.046;2024-03-07T10:49:46;21.33;;;10.90;;
35114;SDS011;21292;52.416;13.046;2024-03-07T10:52:23;19.85;;;9.95;;
35114;SDS011;21292;52.416;13.046;2024-03-07T10:55:00;60.92;;;33.15;;
35114;SDS011;21292;52.416;13.046;2024-03-07T10:57:44;25.42;;;12.32;;
35114;SDS011;21292;52.416;13.046;2024-03-07T11:00:19;22.15;;;10.05;;
35114;SDS011;21292;52.416;13.046;2024-03-07T11:03:00;18.33;;;9.60;;
35114;SDS011;21292;52.416;13.046;2024-03-07T11:05:34;18.90;;;10.00;;
35114;SDS011;21292;52.416;13.046;2024-03-07T11:08:05;21.20;;;11.32;;
35114;SDS011;21292;52.416;13.046;2024-03-07T11:10:39;19.05;;;10.20;;
35114;SDS011;21292;52.416;13.046;2024-03-07T11:13:10;15.40;;;10.05;;
35114;SDS011;21292;52.416;13.046;2024-03-07T11:15:46;17.05;;;10.50;;
35114;SDS011;21292;52.416;13.046;2024-03-07T11:18:15;17.80;;;10.05;;
35114;SDS011;21292;52.416;13.046;2024-03-07T11:20:44;18.80;;;9.60;;
35114;SDS011;21292;52.416;13.046;2024-03-07T11:23:26;19.10;;;9.85;;
35114;SDS011;21292;52.416;13.046;2024-03-07T11:26:03;18.27;;;10.13;;
35114;SDS011;21292;52.416;13.046;2024-03-07T11:28:38;17.55;;;9.65;;
35114;SDS011;21292;52.416;13.046;2024-03-07T11:31:09;18.10;;;9.95;;
35114;SDS011;21292;52.416;13.046;2024-03-07T11:33:39;19.15;;;11.55;;
35114;SDS011;21292;52.416;13.046;2024-03-07T11:36:11;17.73;;;10.13;;
35114;SDS011;21292;52.416;13.046;2024-03-07T11:38:47;19.55;;;10.20;;
35114;SDS011;21292;52.416;13.046;2024-03-07T11:41:19;20.25;;;10.00;;
35114;SDS011;21292;52.416;13.046;2024-03-07T11:43:55;14.10;;;8.93;;
35114;SDS011;21292;52.416;13.046;2024-03-07T11:46:28;21.20;;;9.98;;
35114;SDS011;21292;52.416;13.046;2024-03-07T11:49:02;107.53;;;62.88;;
35114;SDS011;21292;52.416;13.046;2024-03-07T11:51:31;18.13;;;10.80;;
35114;SDS011;21292;52.416;13.046;2024-03-07T11:54:21;21.50;;;10.90;;
35114;SDS011;21292;52.416;13.046;2024-03-07T11:56:54;16.85;;;9.48;;
35114;SDS011;21292;52.416;13.046;2024-03-07T11:59:25;15.35;;;9.77;;
35114;SDS011;21292;52.416;13.046;2024-03-07T12:02:04;20.02;;;10.13;;
35114;SDS011;21292;52.416;13.046;2024-03-07T12:04:34;16.00;;;9.57;;
35114;SDS011;21292;52.416;13.046;2024-03-07T12:07:02;22.40;;;10.20;;
35114;SDS011;21292;52.416;13.046;2024-03-07T12:09:33;21.17;;;10.88;;
35114;SDS011;21292;52.416;13.046;2024-03-07T12:12:03;17.95;;;10.15;;
35114;SDS011;21292;52.416;13.046;2024-03-07T12:14:33;21.92;;;10.40;;
35114;SDS011;21292;52.416;13.046;2024-03-07T12:17:02;21.10;;;10.60;;
35114;SDS011;21292;52.416;13.046;2024-03-07T12:19:34;18.90;;;9.82;;
35114;SDS011;21292;52.416;13.046;2024-03-07T12:22:07;19.35;;;10.70;;
35114;SDS011;21292;52.416;13.046;2024-03-07T12:24:39;21.17;;;9.88;;
35114;SDS011;21292;52.416;13.046;2024-03-07T12:27:08;22.63;;;10.77;;
35114;SDS011;21292;52.416;13.046;2024-03-07T12:29:39;19.35;;;12.13;;
35114;SDS011;21292;52.416;13.046;2024-03-07T12:32:11;22.38;;;10.13;;
35114;SDS011;21292;52.416;13.046;2024-03-07T12:34:42;17.67;;;10.20;;
35114;SDS011;21292;52.416;13.046;2024-03-07T12:37:12;24.73;;;11.48;;
35114;SDS011;21292;52.416;13.046;2024-03-07T12:39:43;20.70;;;11.13;;
35114;SDS011;21292;52.416;13.046;2024-03-07T12:42:14;21.65;;;11.32;;
35114;SDS011;21292;52.416;13.046;2024-03-07T12:44:45;20.58;;;11.15;;
35114;SDS011;21292;52.416;13.046;2024-03-07T12:47:14;18.90;;;10.88;;
35114;SDS011;21292;52.416;13.046;2024-03-07T12:49:43;16.60;;;9.88;;
35114;SDS011;21292;52.416;13.046;2024-03-07T12:52:12;15.27;;;10.98;;
35114;SDS011;21292;52.416;13.046;2024-03-07T12:54:42;18.20;;;10.85;;
35114;SDS011;21292;52.416;13.046;2024-03-07T12:57:11;19.05;;;9.88;;
35114;SDS011;21292;52.416;13.046;2024-03-07T12:59:39;18.10;;;10.48;;
35114;SDS011;21292;52.416;13.046;2024-03-07T13:02:10;19.63;;;11.50;;
35114;SDS011;21292;52.416;13.046;2024-03-07T13:04:39;19.13;;;10.82;;
35114;SDS011;21292;52.416;13.046;2024-03-07T13:07:10;18.60;;;10.45;;
35114;SDS011;21292;52.416;13.046;2024-03-07T13:09:38;18.45;;;10.13;;
35114;SDS011;21292;52.416;13.046;2024-03-07T13:12:07;20.10;;;10.70;;
35114;SDS011;21292;52.416;13.046;2024-03-07T13:14:43;24.77;;;11.50;;
35114;SDS011;21292;52.416;13.046;2024-03-07T13:17:13;25.35;;;11.77;;
35114;SDS011;21292;52.416;13.046;2024-03-07T13:19:47;20.30;;;11.38;;
35114;SDS011;21292;52.416;13.046;2024-03-07T13:22:27;23.40;;;12.20;;
35114;SDS011;21292;52.416;13.046;2024-03-07T13:24:55;23.30;;;12.15;;
35114;SDS011;21292;52.416;13.046;2024-03-07T13:27:24;23.00;;;11.68;;
35114;SDS011;21292;52.416;13.046;2024-03-07T13:29:55;15.30;;;9.65;;
35114;SDS011;21292;52.416;13.046;2024-03-07T13:32:25;17.77;;;10.57;;
35114;SDS011;21292;52.416;13.046;2024-03-07T13:34:55;18.58;;;11.20;;
35114;SDS011;21292;52.416;13.046;2024-03-07T13:37:26;19.77;;;10.90;;
35114;SDS011;21292;52.416;13.046;2024-03-07T13:39:55;23.85;;;12.07;;
35114;SDS011;21292;52.416;13.046;2024-03-07T13:42:26;20.15;;;11.43;;
35114;SDS011;21292;52.416;13.046;2024-03-07T13:44:54;22.33;;;12.15;;
35114;SDS011;21292;52.416;13.046;2024-03-07T13:47:24;22.52;;;12.30;;
35114;SDS011;21292;52.416;13.046;2024-03-07T13:49:53;21.63;;;11.43;;
35114;SDS011;21292;52.416;13.046;2024-03-07T13:52:21;20.35;;;11.93;;
35114;SDS011;21292;52.416;13.046;2024-03-07T13:54:49;21.40;;;11.93;;
35114;SDS011;21292;52.416;13.046;2024-03-07T13:57:24;24.58;;;13.38;;
35114;SDS011;21292;52.416;13.046;2024-03-07T14:00:26;22.65;;;11.48;;
35114;SDS011;21292;52.416;13.046;2024-03-07T14:05:59;23.48;;;12.50;;
35114;SDS011;21292;52.416;13.046;2024-03-07T14:08:46;23.85;;;13.05;;
35114;SDS011;21292;52.416;13.046;2024-03-07T14:11:28;21.40;;;12.10;;
35114;SDS011;21292;52.416;13.046;2024-03-07T14:14:20;24.55;;;11.60;;
35114;SDS011;21292;52.416;13.046;2024-03-07T14:17:13;24.23;;;12.45;;
35114;SDS011;21292;52.416;13.046;2024-03-07T14:20:20;22.50;;;12.93;;
35114;SDS011;21292;52.416;13.046;2024-03-07T14:23:13;27.55;;;13.15;;
35114;SDS011;21292;52.416;13.046;2024-03-07T14:25:51;21.48;;;11.55;;
35114;SDS011;21292;52.416;13.046;2024-03-07T14:31:31;23.17;;;12.45;;
35114;SDS011;21292;52.416;13.046;2024-03-07T14:34:04;19.92;;;10.70;;
35114;SDS011;21292;52.416;13.046;2024-03-07T14:36:38;20.60;;;11.00;;
35114;SDS011;21292;52.416;13.046;2024-03-07T14:39:11;18.58;;;10.57;;
35114;SDS011;21292;52.416;13.046;2024-03-07T14:41:45;17.35;;;9.68;;
35114;SDS011;21292;52.416;13.046;2024-03-07T14:44:22;19.30;;;10.57;;
35114;SDS011;21292;52.416;13.046;2024-03-07T14:46:55;19.63;;;11.73;;
35114;SDS011;21292;52.416;13.046;2024-03-07T14:49:26;18.95;;;10.30;;